大阪/伊丹 の空港の天気 - METARとTAF

大阪空港 ( RJOO / ITM ) - 兵庫県伊丹市
飛行場実況気象(Metar)
観測時間03/28 20:00 JST (03/28 11:00 UTC)
風向・風速北北西 3m/s
視程10km以上
天気現象
少しの雲 雲底高度 1070m
全天の4割程度の雲 雲底高度 2440m
気温9℃
湿度71%
気圧1022hPa
METARRJOO 281100Z 33005KT 9999 FEW035 SCT080 09/04 Q1022 RMK 1CU035 3AC080 A3020
過去の天気等 Google飛行場航空写真 Wunderground天気予報

過去48時間のMETAR

飛行場予報(TAF)
発表時間: 3/28 20:07 JST (3/28 11:07 UTC)
予報対象時間: 28日21時 JST ~ 30日3時 JST
風向・風速北西 4m/s
視程10km以上
少しの雲 雲底高度 760m
29日9時 JST ~ 29日12時 JST に徐々に
風向・風速南南西 3m/s
29日18時 JST ~ 29日21時 JST に徐々に
風向・風速北西 3m/s
TAF RJOO 281107Z 2812/2918 32008KT 9999 FEW025
BECMG 2900/2903 21006KT
BECMG 2909/2912 32006KT
日本の空港のMETAR・TAFへのリンク

RJTT 東京国際空港
RJAA 新東京国際空港
RJBB 関西国際空港
RJOO 大阪空港
RJGG 中部国際空港
RJCC 新千歳空港
RJFF 福岡空港
ROAH 那覇空港


RJEC 旭川空港
RJCH 函館空港
RJCK 釧路空港
RJCM 女満別空港
RJCB 帯広空港
RJSA 青森空港
RJSS 仙台空港
RJSK 秋田空港
RJSF 福島空港
RJAH 茨城空港
RJSN 新潟空港
RJNT 富山空港
RJNK 小松飛行場
RJNS 静岡空港
RJOH 美保飛行場
RJOC 出雲空港
RJOB 岡山空港
RJOA 広島空港
RJOI 岩国飛行場
RJOT 高松空港
RJOM 松山空港
RJOK 高知空港
RJFR 北九州空港
RJFT 熊本空港
RJFU 長崎空港
RJFS 佐賀空港
RJFO 大分空港
RJFM 宮崎空港
RJFK 鹿児島空港
ROIG 石垣島空港
RJTY 横田飛行場
ROTM 普天間飛行場
RODN 嘉手納飛行場